SBRF Airport Information

Runway Information
Runway 18 Length 9865 ft width 148 ft
Elevation 23 ft Threshold 0 ft Heading 162
Runway 36 Length 9865 ft Width 148 ft
Elevation 32 ft Threshold 0 ft Heading 342
Airport Frequencies
Type APP Name RECIFE APP Frequency 119.1 MHZ
Type ATIS Name ATIS Frequency 127.65 MHZ
Type GND Name GND Frequency 121.85 MHZ
Type OPS Name RECIFE OPS Frequency 122.5 MHZ
Type TWR Name RECIFE TWR Frequency 122.8 MHZ
Airport Navaids
Type VOR-DME Name Recife Frequency 116900 KHZ
Airport Weather Information & NOTAM
ADDS - METARS form results

(0810 UTC 22 May 2018)
 
METAR text: SBRF 220800Z 15010KT 9999 SCT023 26/22 Q1014
Conditions at: SBRF (RECIFE/GUARARAPE, BR) observed 0800 UTC 22 May 2018
Temperature: 26.0°C (79°F)
Dewpoint: 22.0°C (72°F) [RH = 79%]
Pressure (altimeter): 29.94 inches Hg (1014.0 mb)
Winds: from the SSE (150 degrees) at 12 MPH (10 knots; 5.2 m/s)
Visibility: 6 or more miles (10+ km)
Ceiling: at least 12,000 feet AGL
Clouds: scattered clouds at 2300 feet AGL
Weather: no significant weather observed at this time